Latest Coastal Weather Observations for Gunn Point

IDD60701

Issued at 9:45 am CST Wednesday 22 October 2014 (issued every 10 minutes, with the page automatically refreshed every 10 minutes)

About coastal observations | Map of coastal stations | Coastal observations for NT | Marine services | Other Formats
Station Details ID: 014023 Name: GUNN POINT Lat: -12.25 Lon: 131.04 Height: 25.0 m
Data from the previous 72 hours. | See also: Recent months for locations in Northern Territory
Date/Time
CST
Temp

°C
Wind Pressure Rain
since 9am
mm
Weather Cloud Vis
km
Sea
Height
m
Swell
Dir
 
Speed
knots
Gust
knots
hPa Trend Height
m
Period
s
Dir
22/09:30am 31.2 N 5 7 1014.6 - 0.0 - - - - - - -
22/09:00am 29.5 ESE 2 5 1014.9 - 0.0 - - - - - - -
22/08:30am 29.3 NNE 2 5 1014.6 - 0.0 - - - - - - -
22/08:00am 28.2 N 2 5 1014.2 - 0.0 - - - - - - -
22/07:30am 25.9 CALM 0 0 1014.0 - 0.0 - - - - - - -
22/07:00am 22.5 CALM 0 0 1013.9 - 0.0 - - - - - - -
22/06:30am 20.7 CALM 0 0 1013.7 - 0.0 - - - - - - -
22/06:00am 20.5 CALM 0 0 1013.2 - 0.0 - - - - - - -
22/05:30am 20.3 CALM 0 0 1013.3 - 0.0 - - - - - - -
22/05:00am 20.8 CALM 0 0 1013.4 - 0.0 - - - - - - -
22/04:30am 20.8 E 0 3 1013.4 - 0.0 - - - - - - -
22/04:00am 21.4 E 1 2 1013.3 - 0.0 - - - - - - -
22/03:30am 22.0 CALM 0 1 1013.1 - 0.0 - - - - - - -
22/03:00am 22.4 ENE 1 2 1013.1 - 0.0 - - - - - - -
22/02:30am 22.6 CALM 0 0 1012.9 - 0.0 - - - - - - -
22/02:00am 23.1 CALM 0 0 1013.3 - 0.0 - - - - - - -
22/01:30am 24.7 CALM 0 0 1013.6 - 0.0 - - - - - - -
22/01:00am 25.8 N 2 4 1013.9 - 0.0 - - - - - - -
22/12:30am 26.4 N 2 4 1014.4 - 0.0 - - - - - - -
22/12:00am 26.7 N 0 2 1014.8 - 0.0 - - - - - - -
 
Date/Time
CST
Temp

°C
Wind Pressure Rain
since 9am
mm
Weather Cloud Vis
km
Sea
Height
m
Swell
Dir
 
Speed
knots
Gust
knots
hPa Trend Height
m
Period
s
Dir
21/11:30pm 26.9 N 1 5 1014.9 - 0.0 - - - - - - -
21/11:00pm 27.5 N 3 5 1014.8 - 0.0 - - - - - - -
21/10:30pm 27.6 NNE 3 7 1014.7 - 0.0 - - - - - - -
21/10:00pm 28.2 NNW 5 10 1014.5 - 0.0 - - - - - - -
21/09:30pm 27.4 NNW 2 7 1013.9 - 0.0 - - - - - - -
21/09:00pm 27.3 ENE 6 10 1013.2 - 0.0 - - - - - - -
21/08:30pm 22.9 E 2 3 1013.0 - 0.0 - - - - - - -
21/08:00pm 23.7 CALM 0 0 1012.4 - 0.0 - - - - - - -
21/07:30pm 25.2 NE 1 2 1012.0 - 0.0 - - - - - - -
21/07:00pm 27.4 CALM 0 0 1011.6 - 0.0 - - - - - - -
21/06:30pm 30.2 N 2 4 1011.1 - 0.0 - - - - - - -
21/06:00pm 31.6 NNE 4 8 1010.8 - 0.0 - - - - - - -
21/05:30pm 31.9 NE 6 11 1010.6 - 0.0 - - - - - - -
21/05:00pm 32.3 N 7 11 1010.6 - 0.0 - - - - - - -
21/04:30pm 32.3 N 7 11 1010.7 - 0.0 - - - - - - -
21/04:00pm 33.1 N 8 14 1010.7 - 0.0 - - - - - - -
21/03:30pm 33.3 NNE 7 12 1010.8 - 0.0 - - - - - - -
21/03:00pm 34.0 NE 8 15 1010.8 - 0.0 - - - - - - -
21/02:30pm 33.9 NE 9 14 1010.9 - 0.0 - - - - - - -
21/02:00pm 33.9 NE 8 15 1011.5 - 0.0 - - - - - - -
21/01:30pm 34.2 NE 9 15 1012.2 - 0.0 - - - - - - -
21/01:00pm 33.6 NE 8 16 1013.0 - 0.0 - - - - - - -
21/12:30pm 33.2 NE 7 13 1013.8 - 0.0 - - - - - - -
21/12:00pm 34.3 E 8 14 1014.6 - 0.0 - - - - - - -
21/11:30am 33.2 ENE 6 14 1014.9 - 0.0 - - - - - - -
21/11:00am 33.3 ENE 7 10 1015.4 - 0.0 - - - - - - -
21/10:30am 32.5 ENE 7 12 1015.8 - 0.0 - - - - - - -
21/10:00am 31.8 ENE 8 14 1015.9 - 0.0 - - - - - - -
21/09:30am 31.6 E 7 13 1015.9 - 0.0 - - - - - - -
21/09:00am 30.2 E 7 12 1015.6 - 0.0 - - - - - - -
21/08:30am 28.6 NNE 5 9 1015.4 - 0.0 - - - - - - -
21/08:00am 28.5 E 2 5 1015.0 - 0.0 - - - - - - -
21/07:30am 25.4 ESE 1 2 1014.8 - 0.0 - - - - - - -
21/07:00am 22.0 CALM 0 0 1014.4 - 0.0 - - - - - - -
21/06:30am 20.7 SE 1 2 1014.3 - 0.0 - - - - - - -
21/06:00am 20.7 CALM 0 0 1013.8 - 0.0 - - - - - - -
21/05:30am 21.2 CALM 0 0 1013.7 - 0.0 - - - - - - -
21/05:00am 21.1 CALM 0 1 1013.7 - 0.0 - - - - - - -
21/04:30am 21.3 CALM 0 0 1013.6 - 0.0 - - - - - - -
21/04:00am 21.3 CALM 0 0 1013.5 - 0.0 - - - - - - -
21/03:30am 21.5 CALM 0 0 1013.4 - 0.0 - - - - - - -
21/03:00am 21.4 CALM 0 0 1013.4 - 0.0 - - - - - - -
21/02:30am 21.5 CALM 0 0 1013.5 - 0.0 - - - - - - -
21/02:00am 21.8 CALM 0 0 1013.8 - 0.0 - - - - - - -
21/01:30am 22.5 ENE 1 2 1014.0 - 0.0 - - - - - - -
21/01:00am 23.4 NE 2 5 1014.2 - 0.0 - - - - - - -
21/12:30am 23.1 CALM 0 0 1014.3 - 0.0 - - - - - - -
21/12:00am 24.3 CALM 0 1 1014.2 - 0.0 - - - - - - -
 
Date/Time
CST
Temp

°C
Wind Pressure Rain
since 9am
mm
Weather Cloud Vis
km
Sea
Height
m
Swell
Dir
 
Speed
knots
Gust
knots
hPa Trend Height
m
Period
s
Dir
20/11:30pm 26.1 N 2 3 1014.3 - 0.0 - - - - - - -
20/11:00pm 27.4 NNW 2 6 1014.2 - 0.0 - - - - - - -
20/10:30pm 27.9 NNW 5 9 1013.8 - 0.0 - - - - - - -
20/10:00pm 27.8 NW 4 10 1013.6 - 0.0 - - - - - - -
20/09:30pm 26.0 NE 3 5 1013.2 - 0.0 - - - - - - -
20/09:00pm 23.5 ENE 2 4 1012.9 - 0.0 - - - - - - -
20/08:30pm 23.2 ENE 3 4 1012.5 - 0.0 - - - - - - -
20/08:00pm 22.6 CALM 0 0 1012.0 - 0.0 - - - - - - -
20/07:30pm 23.5 CALM 0 0 1011.5 - 0.0 - - - - - - -
20/07:00pm 25.8 CALM 0 0 1011.0 - 0.0 - - - - - - -
20/06:30pm 29.7 CALM 0 1 1010.5 - 0.0 - - - - - - -
20/06:00pm 30.8 NE 7 11 1009.8 - 0.0 - - - - - - -
20/05:30pm 32.4 NE 4 9 1009.5 - 0.0 - - - - - - -
20/05:00pm 32.5 NE 6 14 1009.4 - 0.0 - - - - - - -
20/04:30pm 32.4 NNE 7 14 1009.5 - 0.0 - - - - - - -
20/04:00pm 32.1 NNE 8 14 1009.7 - 0.0 - - - - - - -
20/03:30pm 33.0 NNE 7 15 1009.7 - 0.0 - - - - - - -
20/03:00pm 33.0 NE 9 20 1009.8 - 0.0 - - - - - - -
20/02:30pm 32.3 NNE 11 21 1010.0 - 0.0 - - - - - - -
20/02:00pm 33.3 NE 9 18 1010.4 - 0.0 - - - - - - -
20/01:30pm 33.5 NE 10 19 1011.1 - 0.0 - - - - - - -
20/01:00pm 33.1 NE 9 16 1011.7 - 0.0 - - - - - - -
20/12:30pm 33.4 NE 8 14 1012.5 - 0.0 - - - - - - -
20/12:00pm 34.3 ESE 6 14 1013.2 - 0.0 - - - - - - -
20/11:30am 34.6 E 6 11 1013.7 - 0.0 - - - - - - -
20/11:00am 33.3 E 5 12 1014.2 - 0.0 - - - - - - -
20/10:30am 32.9 E 8 15 1014.5 - 0.0 - - - - - - -
20/10:00am 32.1 E 6 12 1014.9 - 0.0 - - - - - - -
20/09:30am 31.6 E 6 11 1015.0 - 0.0 - - - - - - -
20/09:00am 30.7 ENE 5 9 1014.7 - 0.0 - - - - - - -
20/08:30am 29.3 ENE 4 7 1014.6 - 0.0 - - - - - - -
20/08:00am 27.6 ESE 2 4 1014.6 - 0.0 - - - - - - -
20/07:30am 26.1 ESE 1 3 1014.3 - 0.0 - - - - - - -
20/07:00am 23.2 SE 1 2 1013.9 - 0.0 - - - - - - -
20/06:30am 21.8 SSE 1 2 1013.6 - 0.0 - - - - - - -
20/06:00am 22.4 SSE 2 3 1013.3 - 0.0 - - - - - - -
20/05:30am 23.2 CALM 0 0 1013.1 - 0.0 - - - - - - -
20/05:00am 23.6 CALM 0 0 1012.9 - 0.0 - - - - - - -
20/04:30am 23.8 CALM 0 0 1012.7 - 0.0 - - - - - - -
20/04:00am 23.9 CALM 0 0 1012.6 - 0.0 - - - - - - -
20/03:30am 24.5 CALM 0 0 1012.5 - 0.0 - - - - - - -
20/03:00am 24.7 E 2 4 1012.6 - 0.0 - - - - - - -
20/02:30am 23.5 CALM 0 0 1012.6 - 0.0 - - - - - - -
20/02:00am 23.9 CALM 0 0 1012.8 - 0.0 - - - - - - -
20/01:30am 24.2 CALM 0 1 1012.9 - 0.0 - - - - - - -
20/01:00am 24.1 CALM 0 0 1013.3 - 0.0 - - - - - - -
20/12:30am 23.8 NNE 1 2 1013.5 - 0.0 - - - - - - -
20/12:00am 24.0 CALM 0 0 1013.8 - 0.0 - - - - - - -
 
Date/Time
CST
Temp

°C
Wind Pressure Rain
since 9am
mm
Weather Cloud Vis
km
Sea
Height
m
Swell
Dir
 
Speed
knots
Gust
knots
hPa Trend Height
m
Period
s
Dir
19/11:30pm 24.4 CALM 0 0 1013.9 - 0.0 - - - - - - -
19/11:00pm 24.7 NE 1 3 1013.7 - 0.0 - - - - - - -
19/10:30pm 25.1 NE 2 4 1013.6 - 0.0 - - - - - - -
19/10:00pm 26.1 CALM 0 0 1013.4 - 0.0 - - - - - - -
19/09:30pm 27.6 NW 2 4 1013.0 - 0.0 - - - - - - -
19/09:00pm 27.8 NE 1 4 1012.4 - 0.0 - - - - - - -
19/08:30pm 28.5 N 4 8 1011.8 - 0.0 - - - - - - -
19/08:00pm 28.8 NNE 5 11 1011.1 - 0.0 - - - - - - -
19/07:30pm 28.9 NE 6 10 1010.6 - 0.0 - - - - - - -
19/07:00pm 28.9 ENE 5 10 1010.3 - 0.0 - - - - - - -
19/06:30pm 29.4 NE 8 14 1010.0 - 0.0 - - - - - - -
19/06:00pm 30.4 NE 7 13 1009.8 - 0.0 - - - - - - -
19/05:30pm 31.2 NNE 7 14 1009.6 - 0.0 - - - - - - -
19/05:00pm 31.7 NE 7 13 1009.3 - 0.0 - - - - - - -
19/04:30pm 32.3 NNE 9 16 1009.3 - 0.0 - - - - - - -
19/04:00pm 32.4 NE 9 16 1009.4 - 0.0 - - - - - - -
19/03:30pm 33.0 ENE 11 17 1009.7 - 0.0 - - - - - - -
19/03:00pm 33.4 ENE 8 14 1009.8 - 0.0 - - - - - - -
19/02:30pm 32.7 NE 9 15 1010.1 - 0.0 - - - - - - -
19/02:00pm 33.7 NE 7 14 1010.5 - 0.0 - - - - - - -
19/01:30pm 33.4 NE 9 18 1010.9 - 0.0 - - - - - - -
19/01:00pm 33.1 NE 9 14 1011.5 - 0.0 - - - - - - -
19/12:30pm 33.4 ENE 8 13 1012.1 - 0.0 - - - - - - -
19/12:00pm 33.3 E 8 14 1012.8 - 0.0 - - - - - - -
19/11:30am 34.0 E 7 12 1013.1 - 0.0 - - - - - - -
19/11:00am 32.8 E 7 12 1013.5 - 0.0 - - - - - - -
19/10:30am 31.9 ENE 6 12 1013.8 - 0.0 - - - - - - -
19/10:00am 31.6 NE 5 10 1013.9 - 0.0 - - - - - - -

Other Formats:

Comma delimited format used in spreadsheet applications
http://www.bom.gov.au/fwo/IDD60701/IDD60701.99501.axf

JavaScript Object Notation format (JSON) in row-major order
http://www.bom.gov.au/fwo/IDD60701/IDD60701.99501.json